createdAt,value
2019-04-01T00:00:57.712Z,2.17
2019-04-01T00:03:25.937Z,2.40
2019-04-01T00:05:54.133Z,2.67
2019-04-01T00:08:22.324Z,2.20
2019-04-01T00:10:50.499Z,2.07
2019-04-01T00:13:18.722Z,2.50
2019-04-01T00:15:46.968Z,2.53
2019-04-01T00:18:15.181Z,2.33
2019-04-01T00:20:43.401Z,2.60
2019-04-01T00:23:11.689Z,2.00
2019-04-01T00:25:40.176Z,2.70
2019-04-01T00:28:08.377Z,2.33
2019-04-01T00:30:36.557Z,1.93
2019-04-01T00:33:04.741Z,2.33
2019-04-01T00:35:32.925Z,2.50
2019-04-01T00:38:01.103Z,2.23
2019-04-01T00:40:29.308Z,2.70
2019-04-01T00:43:07.895Z,2.37
2019-04-01T00:45:37.753Z,2.30
2019-04-01T00:48:05.926Z,2.20
2019-04-01T00:50:34.142Z,2.10
2019-04-01T00:53:02.349Z,2.10
2019-04-01T00:55:30.552Z,2.00
2019-04-01T00:57:58.785Z,2.37
2019-04-01T01:00:27.072Z,2.20
2019-04-01T01:02:55.269Z,2.50
2019-04-01T01:05:23.443Z,1.60
2019-04-01T01:07:51.653Z,2.63
2019-04-01T01:10:19.824Z,2.60
2019-04-01T01:12:48.042Z,2.47
2019-04-01T01:15:16.240Z,2.30
2019-04-01T01:17:44.441Z,2.23
2019-04-01T01:20:12.612Z,2.90
2019-04-01T01:22:40.823Z,2.53
2019-04-01T01:25:09.265Z,2.23
2019-04-01T01:27:37.468Z,2.73
2019-04-01T01:30:08.599Z,2.60
2019-04-01T01:32:36.802Z,2.30
2019-04-01T01:35:05.049Z,2.70
2019-04-01T01:37:33.233Z,2.97
2019-04-01T01:40:01.435Z,2.93
2019-04-01T01:42:29.619Z,2.40
2019-04-01T01:44:57.800Z,2.20
2019-04-01T01:47:26.000Z,2.67
2019-04-01T01:49:54.171Z,2.57
2019-04-01T01:52:22.384Z,2.67
2019-04-01T01:54:50.585Z,2.70
2019-04-01T01:57:18.797Z,3.03
2019-04-01T01:59:46.993Z,3.40
2019-04-01T02:02:15.178Z,3.23
2019-04-01T02:04:43.344Z,3.47
2019-04-01T02:07:11.565Z,2.80
2019-04-01T02:09:39.762Z,3.17
2019-04-01T02:12:07.940Z,2.70
2019-04-01T02:14:36.123Z,3.23
2019-04-01T02:17:04.352Z,3.30
2019-04-01T02:19:32.544Z,3.55
2019-04-01T02:22:00.750Z,3.60
2019-04-01T02:24:28.923Z,2.95
2019-04-01T02:26:57.101Z,2.80
2019-04-01T02:29:25.283Z,3.00
2019-04-01T02:31:54.452Z,3.47
2019-04-01T02:34:22.659Z,2.50
2019-04-01T02:36:50.855Z,3.25
2019-04-01T02:39:19.070Z,3.00
2019-04-01T02:41:47.342Z,3.13
2019-04-01T02:44:15.532Z,2.80
2019-04-01T02:46:43.742Z,2.67
2019-04-01T02:49:11.973Z,2.70
2019-04-01T02:51:40.245Z,2.73
2019-04-01T02:54:08.458Z,3.10
2019-04-01T02:56:36.738Z,2.70
2019-04-01T02:59:04.981Z,2.70
2019-04-01T03:01:33.191Z,3.87
2019-04-01T03:04:01.475Z,3.17
2019-04-01T03:06:29.685Z,2.97
2019-04-01T03:08:57.894Z,2.90
2019-04-01T03:11:26.188Z,3.23
2019-04-01T03:13:54.351Z,2.50
2019-04-01T03:16:22.545Z,2.80
2019-04-01T03:18:50.780Z,3.43
2019-04-01T03:21:18.950Z,3.20
2019-04-01T03:23:47.186Z,3.27
2019-04-01T03:26:15.415Z,3.20
2019-04-01T03:28:44.580Z,3.50
2019-04-01T03:31:13.716Z,3.00
2019-04-01T03:33:41.958Z,2.87
2019-04-01T03:36:10.129Z,3.80
2019-04-01T03:38:38.429Z,3.20
2019-04-01T03:41:06.626Z,3.27
2019-04-01T03:43:34.829Z,3.97
2019-04-01T03:46:03.053Z,3.13
2019-04-01T03:48:31.233Z,2.53
2019-04-01T03:50:59.420Z,3.03
2019-04-01T03:53:27.604Z,3.27
2019-04-01T03:55:55.855Z,3.17
2019-04-01T03:58:24.081Z,2.90
2019-04-01T04:00:52.252Z,3.10
2019-04-01T04:03:20.459Z,3.90
2019-04-01T04:05:48.650Z,3.00
2019-04-01T04:08:16.848Z,2.90
2019-04-01T04:10:45.118Z,3.20
2019-04-01T04:13:13.339Z,3.40
2019-04-01T04:15:41.554Z,2.60
2019-04-01T04:18:09.757Z,3.13
2019-04-01T04:20:37.934Z,3.20
2019-04-01T04:23:06.121Z,2.90
2019-04-01T04:25:34.312Z,3.63
2019-04-01T04:28:02.889Z,3.07
2019-04-01T04:30:31.101Z,3.13
2019-04-01T04:32:59.306Z,3.43
2019-04-01T04:35:27.498Z,3.70
2019-04-01T04:37:55.679Z,4.03
2019-04-01T04:40:23.860Z,3.20
2019-04-01T04:42:52.094Z,3.77
2019-04-01T04:45:20.280Z,3.40
2019-04-01T04:47:48.466Z,3.57
2019-04-01T04:50:16.660Z,4.40
2019-04-01T04:52:44.877Z,3.53
2019-04-01T04:55:13.051Z,3.27
2019-04-01T04:57:41.260Z,3.37
2019-04-01T05:00:09.466Z,3.27
2019-04-01T05:02:37.655Z,3.50
2019-04-01T05:05:06.215Z,4.77
2019-04-01T05:07:34.408Z,3.50
2019-04-01T05:10:02.613Z,3.50
2019-04-01T05:12:30.820Z,4.00
2019-04-01T05:14:58.995Z,4.20
2019-04-01T05:17:27.216Z,3.93
2019-04-01T05:19:55.404Z,3.17
2019-04-01T05:22:24.553Z,4.00
2019-04-01T05:24:53.345Z,3.70
2019-04-01T05:27:23.067Z,4.50
2019-04-01T05:29:52.793Z,4.00
2019-04-01T05:32:21.376Z,4.30
2019-04-01T05:34:50.064Z,3.90
2019-04-01T05:37:18.310Z,4.17
2019-04-01T05:39:46.505Z,4.07
2019-04-01T05:42:14.718Z,4.63
2019-04-01T05:44:42.920Z,4.33
2019-04-01T05:47:11.144Z,4.17
2019-04-01T05:49:39.420Z,4.73
2019-04-01T05:52:07.976Z,4.70
2019-04-01T05:54:36.186Z,4.63
2019-04-01T05:57:04.401Z,4.53
2019-04-01T05:59:32.575Z,3.97
2019-04-01T06:02:00.781Z,4.10
2019-04-01T06:04:28.984Z,4.00
2019-04-01T06:06:57.202Z,4.73
2019-04-01T06:09:25.372Z,3.80
2019-04-01T06:11:53.624Z,5.70
2019-04-01T06:14:21.840Z,4.57
2019-04-01T06:16:50.041Z,4.00
2019-04-01T06:19:18.328Z,5.13
2019-04-01T06:21:46.780Z,6.95
2019-04-01T06:24:15.053Z,4.80
2019-04-01T06:26:43.262Z,4.30
2019-04-01T06:29:11.435Z,4.30
2019-04-01T06:31:39.661Z,4.65
2019-04-01T06:34:07.831Z,4.00
2019-04-01T06:36:38.723Z,3.90
2019-04-01T06:39:06.288Z,4.50
2019-04-01T06:41:34.488Z,4.50
2019-04-01T06:44:02.752Z,3.20
2019-04-01T06:46:30.953Z,3.77
2019-04-01T06:48:59.181Z,3.43
2019-04-01T06:51:27.355Z,3.70
2019-04-01T06:53:55.633Z,3.60
2019-04-01T06:56:23.822Z,3.73
2019-04-01T06:58:52.097Z,3.17
2019-04-01T07:01:20.334Z,3.00
2019-04-01T07:03:48.511Z,3.20
2019-04-01T07:06:16.729Z,2.93
2019-04-01T07:08:45.001Z,2.57
2019-04-01T07:11:13.172Z,3.10
2019-04-01T07:13:41.360Z,2.93
2019-04-01T07:16:15.734Z,3.10
2019-04-01T07:18:39.427Z,3.10
2019-04-01T07:21:07.645Z,3.13
2019-04-01T07:23:35.809Z,3.13
2019-04-01T07:26:04.030Z,3.30
2019-04-01T07:28:32.211Z,3.20
2019-04-01T07:31:00.425Z,3.00
2019-04-01T07:33:28.596Z,2.70
2019-04-01T07:35:56.778Z,3.47
2019-04-01T07:38:24.993Z,2.67
2019-04-01T07:40:53.167Z,2.63
2019-04-01T07:43:21.401Z,2.50
2019-04-01T07:45:49.731Z,2.23
2019-04-01T07:48:17.941Z,2.03
2019-04-01T07:50:46.260Z,2.20
2019-04-01T07:53:14.465Z,1.93
2019-04-01T07:55:42.707Z,2.30
2019-04-01T07:58:10.886Z,2.40
2019-04-01T08:00:39.063Z,2.10
2019-04-01T08:03:07.252Z,2.40
2019-04-01T08:05:35.508Z,1.87
2019-04-01T08:08:03.680Z,2.35
2019-04-01T08:10:32.822Z,2.20
2019-04-01T08:13:01.036Z,1.80
2019-04-01T08:15:29.284Z,1.80
2019-04-01T08:17:57.464Z,2.03
2019-04-01T08:20:27.029Z,2.00
2019-04-01T08:22:55.212Z,1.70
2019-04-01T08:25:23.393Z,2.10
2019-04-01T08:27:51.609Z,1.80
2019-04-01T08:30:19.853Z,2.27
2019-04-01T08:32:48.033Z,2.13
2019-04-01T08:35:16.235Z,2.30
2019-04-01T08:37:44.423Z,1.80
2019-04-01T08:40:12.887Z,1.90
2019-04-01T08:42:41.118Z,2.00
2019-04-01T08:45:10.569Z,1.70
2019-04-01T08:50:06.871Z,1.40
2019-04-01T08:52:35.353Z,1.70
2019-04-01T08:55:05.248Z,1.87
2019-04-01T08:57:33.454Z,1.40
2019-04-01T09:00:01.717Z,1.90
2019-04-01T09:02:29.955Z,1.80
2019-04-01T09:04:58.131Z,1.50
2019-04-01T09:07:26.350Z,2.00
2019-04-01T09:09:54.522Z,2.00
2019-04-01T09:14:50.129Z,1.50
2019-04-01T11:42:20.880Z,1.93
2019-04-01T11:44:49.564Z,2.10
2019-04-01T11:52:15.387Z,1.80
2019-04-01T11:54:42.555Z,1.73
2019-04-01T11:57:11.102Z,2.00
2019-04-01T11:59:39.597Z,2.03
2019-04-01T12:02:07.895Z,2.00
2019-04-01T12:04:36.177Z,1.93
2019-04-01T12:07:04.366Z,1.60
2019-04-01T12:09:32.568Z,2.20
2019-04-01T12:12:00.810Z,2.00
2019-04-01T12:14:29.052Z,1.80
2019-04-01T12:16:57.224Z,1.83
2019-04-01T12:21:52.792Z,2.25
2019-04-01T12:24:21.019Z,2.00
2019-04-01T12:26:49.297Z,1.90
2019-04-01T12:34:12.234Z,2.00
2019-04-01T12:36:40.446Z,2.00
2019-04-01T12:39:08.794Z,1.80
2019-04-01T12:41:36.964Z,2.20
2019-04-01T12:44:05.172Z,2.10
2019-04-01T12:46:33.418Z,1.93
2019-04-01T12:49:01.652Z,2.00
2019-04-01T12:51:29.846Z,1.73
2019-04-01T12:53:58.120Z,1.83
2019-04-01T12:56:26.392Z,1.80
2019-04-01T13:45:44.763Z,1.80
2019-04-01T13:48:12.972Z,1.57
2019-04-01T13:50:41.246Z,1.70
2019-04-01T13:53:09.544Z,1.67
2019-04-01T13:55:38.280Z,1.60
2019-04-01T13:58:06.837Z,1.70
2019-04-01T14:27:42.338Z,1.83
2019-04-01T14:30:10.581Z,2.00
2019-04-01T14:32:38.797Z,1.83
2019-04-01T14:35:07.150Z,1.80
2019-04-01T14:37:35.385Z,1.60
2019-04-01T14:40:04.625Z,2.10
2019-04-01T14:42:32.890Z,1.87
2019-04-01T14:45:01.156Z,1.50
2019-04-01T14:47:29.424Z,1.80
2019-04-01T14:49:57.626Z,1.90
2019-04-01T14:52:32.515Z,2.10
2019-04-01T15:12:07.693Z,2.00
2019-04-01T15:14:35.861Z,2.10
2019-04-01T15:19:31.449Z,2.10
2019-04-01T15:21:59.667Z,2.40
2019-04-01T15:26:55.379Z,2.13
2019-04-01T15:34:18.611Z,2.00
2019-04-01T15:36:47.861Z,2.37
2019-04-01T15:39:16.432Z,2.40
2019-04-01T15:51:37.272Z,2.30
2019-04-01T15:54:05.456Z,2.30
2019-04-01T15:56:34.211Z,2.43
2019-04-01T15:59:02.408Z,2.20
2019-04-01T16:01:30.617Z,2.30
2019-04-01T16:03:58.829Z,1.93
2019-04-01T16:06:26.995Z,2.27
2019-04-01T16:08:55.213Z,2.40
2019-04-01T16:28:37.757Z,2.40
2019-04-01T16:31:05.943Z,2.40
2019-04-01T16:38:28.915Z,2.87
2019-04-01T16:40:57.083Z,2.50
2019-04-01T16:43:25.300Z,2.50
2019-04-01T16:50:49.848Z,3.35
2019-04-01T16:53:18.050Z,2.87
2019-04-01T16:55:46.256Z,3.00
2019-04-01T16:58:14.510Z,2.70
2019-04-01T17:00:42.756Z,3.27
2019-04-01T17:03:13.557Z,3.10
2019-04-01T17:05:40.845Z,2.67
2019-04-01T17:08:10.058Z,3.07
2019-04-01T17:10:38.460Z,2.90
2019-04-01T17:13:07.321Z,2.83
2019-04-01T17:15:35.776Z,2.40
2019-04-01T17:18:03.948Z,3.20
2019-04-01T17:32:50.156Z,2.60
2019-04-01T17:40:16.786Z,2.70
2019-04-01T17:42:43.372Z,2.30
2019-04-01T17:45:22.125Z,2.93
2019-04-01T17:47:50.321Z,2.67
2019-04-01T17:50:18.520Z,2.70
2019-04-01T17:52:46.797Z,2.27
2019-04-01T17:55:15.035Z,2.60
2019-04-01T17:57:43.273Z,2.10
2019-04-01T18:02:38.902Z,2.80
2019-04-01T18:07:36.087Z,2.80
2019-04-01T18:10:05.386Z,2.87
2019-04-01T18:12:33.591Z,2.40
2019-04-01T18:15:01.885Z,2.70
2019-04-01T18:17:30.140Z,2.80
2019-04-01T18:19:58.322Z,2.90
2019-04-01T18:22:26.545Z,2.60
2019-04-01T18:24:54.712Z,2.43
2019-04-01T18:27:22.933Z,2.37
2019-04-01T18:29:51.107Z,2.23
2019-04-01T18:32:19.319Z,2.30
2019-04-01T18:34:47.504Z,2.67
2019-04-01T18:37:15.722Z,2.70
2019-04-01T18:39:48.411Z,2.50
2019-04-01T18:42:13.833Z,2.50
2019-04-01T18:44:42.042Z,2.53
2019-04-01T18:47:10.249Z,2.90
2019-04-01T18:49:38.444Z,2.50
2019-04-01T18:52:06.618Z,2.50
2019-04-01T18:54:34.786Z,2.70
2019-04-01T18:57:03.766Z,2.60
2019-04-01T18:59:32.113Z,2.67
2019-04-01T19:02:00.333Z,2.50
2019-04-01T19:04:28.496Z,3.17
2019-04-01T19:06:56.685Z,2.77
2019-04-01T19:09:24.872Z,2.83
2019-04-01T19:12:03.222Z,2.67
2019-04-01T19:16:50.283Z,2.80
2019-04-01T20:20:45.090Z,2.30
2019-04-01T20:23:13.296Z,2.65
2019-04-01T20:25:41.479Z,2.40
2019-04-01T20:28:09.680Z,2.90
2019-04-01T20:30:38.140Z,2.70
2019-04-01T20:33:16.976Z,2.80
2019-04-01T20:35:36.597Z,3.10
2019-04-01T20:38:04.790Z,3.00
2019-04-01T20:40:33.008Z,3.00
2019-04-01T20:43:01.206Z,2.87
2019-04-01T20:45:29.412Z,2.63
2019-04-01T20:47:57.616Z,3.00
2019-04-01T20:50:25.791Z,2.90
2019-04-01T20:52:54.010Z,3.10
2019-04-01T20:55:22.172Z,3.20
2019-04-01T20:57:50.402Z,3.10
2019-04-01T21:00:19.005Z,3.00
2019-04-01T21:02:47.204Z,2.73
2019-04-01T21:05:15.850Z,3.50
2019-04-01T21:07:44.062Z,3.07
2019-04-01T21:10:13.181Z,3.40
2019-04-01T21:12:42.281Z,2.97
2019-04-01T21:15:10.535Z,2.77
2019-04-01T21:17:38.729Z,3.23
2019-04-01T21:20:07.068Z,2.93
2019-04-01T21:22:36.675Z,2.90
2019-04-01T21:25:06.486Z,2.80
2019-04-01T21:27:34.650Z,3.17
2019-04-01T21:30:03.899Z,3.37
2019-04-01T21:32:32.077Z,2.90
2019-04-01T21:35:00.264Z,3.07
2019-04-01T21:37:28.466Z,2.97
2019-04-01T21:39:56.669Z,3.40
2019-04-01T21:42:24.868Z,3.37
2019-04-01T21:44:53.052Z,3.30
2019-04-01T21:47:21.233Z,3.30
2019-04-01T21:49:49.412Z,3.20
2019-04-01T21:52:17.657Z,3.55
2019-04-01T22:16:53.872Z,3.75
2019-04-01T22:46:24.898Z,3.87
2019-04-01T23:11:01.822Z,4.00
2019-04-01T23:30:41.688Z,3.80
2019-04-01T23:33:09.872Z,3.73
2019-04-01T23:35:38.072Z,3.90
2019-04-01T23:38:07.108Z,4.10
2019-04-01T23:40:35.439Z,4.20
2019-04-01T23:43:03.630Z,4.47
